sensor_id;sensor_type;location;lat;lon;timestamp;temperature;humidity
2489;DHT22;1255;48.716;9.124;2022-12-07T00:01:52;3.50;99.90
2489;DHT22;1255;48.716;9.124;2022-12-07T00:04:19;3.40;99.90
2489;DHT22;1255;48.716;9.124;2022-12-07T00:06:50;3.40;99.90
2489;DHT22;1255;48.716;9.124;2022-12-07T00:09:17;3.40;99.90
2489;DHT22;1255;48.716;9.124;2022-12-07T00:11:48;3.40;99.90
2489;DHT22;1255;48.716;9.124;2022-12-07T00:14:16;3.40;99.90
2489;DHT22;1255;48.716;9.124;2022-12-07T00:16:43;3.40;99.90
2489;DHT22;1255;48.716;9.124;2022-12-07T00:19:12;3.40;99.90
2489;DHT22;1255;48.716;9.124;2022-12-07T00:21:40;3.40;99.90
2489;DHT22;1255;48.716;9.124;2022-12-07T00:24:07;3.40;99.90
2489;DHT22;1255;48.716;9.124;2022-12-07T00:26:35;3.40;99.90
2489;DHT22;1255;48.716;9.124;2022-12-07T00:29:06;3.40;99.90
2489;DHT22;1255;48.716;9.124;2022-12-07T00:31:35;3.50;99.90
2489;DHT22;1255;48.716;9.124;2022-12-07T00:34:04;3.40;99.90
2489;DHT22;1255;48.716;9.124;2022-12-07T00:36:31;3.40;99.90
2489;DHT22;1255;48.716;9.124;2022-12-07T00:38:59;3.40;99.90
2489;DHT22;1255;48.716;9.124;2022-12-07T00:41:27;3.40;99.90
2489;DHT22;1255;48.716;9.124;2022-12-07T00:43:54;3.40;99.90
2489;DHT22;1255;48.716;9.124;2022-12-07T00:46:23;3.40;99.90
2489;DHT22;1255;48.716;9.124;2022-12-07T00:48:52;3.40;99.90
2489;DHT22;1255;48.716;9.124;2022-12-07T00:51:20;3.40;99.90
2489;DHT22;1255;48.716;9.124;2022-12-07T00:53:48;3.40;99.90
2489;DHT22;1255;48.716;9.124;2022-12-07T00:56:20;3.40;99.90
2489;DHT22;1255;48.716;9.124;2022-12-07T00:58:50;3.30;99.90
2489;DHT22;1255;48.716;9.124;2022-12-07T01:01:17;3.40;99.90
2489;DHT22;1255;48.716;9.124;2022-12-07T01:03:45;3.40;99.90
2489;DHT22;1255;48.716;9.124;2022-12-07T01:06:14;3.40;99.90
2489;DHT22;1255;48.716;9.124;2022-12-07T01:08:42;3.20;99.90
2489;DHT22;1255;48.716;9.124;2022-12-07T01:11:12;3.30;99.90
2489;DHT22;1255;48.716;9.124;2022-12-07T01:13:40;3.20;99.90
2489;DHT22;1255;48.716;9.124;2022-12-07T01:16:08;3.20;99.90
2489;DHT22;1255;48.716;9.124;2022-12-07T01:18:36;3.20;99.90
2489;DHT22;1255;48.716;9.124;2022-12-07T01:21:06;3.20;99.90
2489;DHT22;1255;48.716;9.124;2022-12-07T01:23:34;3.20;99.90
2489;DHT22;1255;48.716;9.124;2022-12-07T01:26:04;3.20;99.90
2489;DHT22;1255;48.716;9.124;2022-12-07T01:28:31;3.20;99.90
2489;DHT22;1255;48.716;9.124;2022-12-07T01:31:00;3.20;99.90
2489;DHT22;1255;48.716;9.124;2022-12-07T01:33:28;3.20;99.90
2489;DHT22;1255;48.716;9.124;2022-12-07T01:35:59;3.20;99.90
2489;DHT22;1255;48.716;9.124;2022-12-07T01:38:28;3.20;99.90
2489;DHT22;1255;48.716;9.124;2022-12-07T01:40:56;3.10;99.90
2489;DHT22;1255;48.716;9.124;2022-12-07T01:43:24;3.10;99.90
2489;DHT22;1255;48.716;9.124;2022-12-07T01:45:52;3.10;99.90
2489;DHT22;1255;48.716;9.124;2022-12-07T01:48:22;3.20;99.90
2489;DHT22;1255;48.716;9.124;2022-12-07T01:50:51;3.20;99.90
2489;DHT22;1255;48.716;9.124;2022-12-07T01:53:19;3.10;99.90
2489;DHT22;1255;48.716;9.124;2022-12-07T01:55:50;3.10;99.90
2489;DHT22;1255;48.716;9.124;2022-12-07T01:58:18;3.10;99.90
2489;DHT22;1255;48.716;9.124;2022-12-07T02:00:47;3.10;99.90
2489;DHT22;1255;48.716;9.124;2022-12-07T02:03:18;3.10;99.90
2489;DHT22;1255;48.716;9.124;2022-12-07T02:05:46;3.10;99.90
2489;DHT22;1255;48.716;9.124;2022-12-07T02:08:15;3.10;99.90
2489;DHT22;1255;48.716;9.124;2022-12-07T02:10:42;3.10;99.90
2489;DHT22;1255;48.716;9.124;2022-12-07T02:13:13;3.00;99.90
2489;DHT22;1255;48.716;9.124;2022-12-07T02:16:05;3.00;99.90
2489;DHT22;1255;48.716;9.124;2022-12-07T02:18:45;3.00;99.90
2489;DHT22;1255;48.716;9.124;2022-12-07T02:21:20;3.00;99.90
2489;DHT22;1255;48.716;9.124;2022-12-07T02:24:13;3.00;99.90
2489;DHT22;1255;48.716;9.124;2022-12-07T02:27:05;3.00;99.90
2489;DHT22;1255;48.716;9.124;2022-12-07T02:29:39;3.00;99.90
2489;DHT22;1255;48.716;9.124;2022-12-07T02:32:13;3.00;99.90
2489;DHT22;1255;48.716;9.124;2022-12-07T02:34:47;3.00;99.90
2489;DHT22;1255;48.716;9.124;2022-12-07T02:37:26;3.00;99.90
2489;DHT22;1255;48.716;9.124;2022-12-07T02:39:58;3.00;99.90
2489;DHT22;1255;48.716;9.124;2022-12-07T02:42:31;3.00;99.90
2489;DHT22;1255;48.716;9.124;2022-12-07T02:45:03;3.00;99.90
2489;DHT22;1255;48.716;9.124;2022-12-07T02:47:32;3.00;99.90
2489;DHT22;1255;48.716;9.124;2022-12-07T02:50:03;2.90;99.90
2489;DHT22;1255;48.716;9.124;2022-12-07T02:52:30;2.90;99.90
2489;DHT22;1255;48.716;9.124;2022-12-07T02:54:57;2.90;99.90
2489;DHT22;1255;48.716;9.124;2022-12-07T02:57:35;2.90;99.90
2489;DHT22;1255;48.716;9.124;2022-12-07T03:00:08;2.90;99.90
2489;DHT22;1255;48.716;9.124;2022-12-07T03:02:41;2.90;99.90
2489;DHT22;1255;48.716;9.124;2022-12-07T03:05:20;2.90;99.90
2489;DHT22;1255;48.716;9.124;2022-12-07T03:07:53;2.90;99.90
2489;DHT22;1255;48.716;9.124;2022-12-07T03:10:26;2.90;99.90
2489;DHT22;1255;48.716;9.124;2022-12-07T03:13:00;2.90;99.90
2489;DHT22;1255;48.716;9.124;2022-12-07T03:15:33;2.90;99.90
2489;DHT22;1255;48.716;9.124;2022-12-07T03:18:03;2.90;99.90
2489;DHT22;1255;48.716;9.124;2022-12-07T03:20:32;3.00;99.90
2489;DHT22;1255;48.716;9.124;2022-12-07T03:23:03;3.00;99.90
2489;DHT22;1255;48.716;9.124;2022-12-07T03:25:32;2.90;99.90
2489;DHT22;1255;48.716;9.124;2022-12-07T03:28:03;2.90;99.90
2489;DHT22;1255;48.716;9.124;2022-12-07T03:30:35;2.90;99.90
2489;DHT22;1255;48.716;9.124;2022-12-07T03:33:07;2.90;99.90
2489;DHT22;1255;48.716;9.124;2022-12-07T03:35:38;2.90;99.90
2489;DHT22;1255;48.716;9.124;2022-12-07T03:38:13;2.90;99.90
2489;DHT22;1255;48.716;9.124;2022-12-07T03:40:48;2.80;99.90
2489;DHT22;1255;48.716;9.124;2022-12-07T03:43:17;2.80;99.90
2489;DHT22;1255;48.716;9.124;2022-12-07T03:45:53;2.80;99.90
2489;DHT22;1255;48.716;9.124;2022-12-07T03:48:26;2.80;99.90
2489;DHT22;1255;48.716;9.124;2022-12-07T03:51:01;2.90;99.90
2489;DHT22;1255;48.716;9.124;2022-12-07T03:53:35;2.90;99.90
2489;DHT22;1255;48.716;9.124;2022-12-07T03:56:04;2.80;99.90
2489;DHT22;1255;48.716;9.124;2022-12-07T03:58:32;2.90;99.90
2489;DHT22;1255;48.716;9.124;2022-12-07T04:01:01;2.80;99.90
2489;DHT22;1255;48.716;9.124;2022-12-07T04:03:28;2.80;99.90
2489;DHT22;1255;48.716;9.124;2022-12-07T04:05:54;2.80;99.90
2489;DHT22;1255;48.716;9.124;2022-12-07T04:08:21;2.80;99.90
2489;DHT22;1255;48.716;9.124;2022-12-07T04:10:48;2.80;99.90
2489;DHT22;1255;48.716;9.124;2022-12-07T04:13:15;2.80;99.90
2489;DHT22;1255;48.716;9.124;2022-12-07T04:15:42;2.80;99.90
2489;DHT22;1255;48.716;9.124;2022-12-07T04:18:10;2.80;99.90
2489;DHT22;1255;48.716;9.124;2022-12-07T04:20:37;2.80;99.90
2489;DHT22;1255;48.716;9.124;2022-12-07T04:23:04;2.80;99.90
2489;DHT22;1255;48.716;9.124;2022-12-07T04:25:31;2.70;99.90
2489;DHT22;1255;48.716;9.124;2022-12-07T04:27:58;2.70;99.90
2489;DHT22;1255;48.716;9.124;2022-12-07T04:30:25;2.70;99.90
2489;DHT22;1255;48.716;9.124;2022-12-07T04:32:51;2.70;99.90
2489;DHT22;1255;48.716;9.124;2022-12-07T04:35:20;2.80;99.90
2489;DHT22;1255;48.716;9.124;2022-12-07T04:37:47;2.70;99.90
2489;DHT22;1255;48.716;9.124;2022-12-07T04:40:13;2.70;99.90
2489;DHT22;1255;48.716;9.124;2022-12-07T04:42:40;2.80;99.90
2489;DHT22;1255;48.716;9.124;2022-12-07T04:45:13;2.80;99.90
2489;DHT22;1255;48.716;9.124;2022-12-07T04:47:40;2.80;99.90
2489;DHT22;1255;48.716;9.124;2022-12-07T04:50:09;2.80;99.90
2489;DHT22;1255;48.716;9.124;2022-12-07T04:52:39;2.70;99.90
2489;DHT22;1255;48.716;9.124;2022-12-07T04:55:08;2.80;99.90
2489;DHT22;1255;48.716;9.124;2022-12-07T04:57:35;2.70;99.90
2489;DHT22;1255;48.716;9.124;2022-12-07T05:00:03;2.60;99.90
2489;DHT22;1255;48.716;9.124;2022-12-07T05:02:30;2.50;99.90
2489;DHT22;1255;48.716;9.124;2022-12-07T05:04:57;2.50;99.90
2489;DHT22;1255;48.716;9.124;2022-12-07T05:07:23;2.50;99.90
2489;DHT22;1255;48.716;9.124;2022-12-07T05:09:51;2.50;99.90
2489;DHT22;1255;48.716;9.124;2022-12-07T05:12:18;2.40;99.90
2489;DHT22;1255;48.716;9.124;2022-12-07T05:14:45;2.40;99.90
2489;DHT22;1255;48.716;9.124;2022-12-07T05:17:11;2.30;99.90
2489;DHT22;1255;48.716;9.124;2022-12-07T05:19:39;2.30;99.90
2489;DHT22;1255;48.716;9.124;2022-12-07T05:22:05;2.30;99.90
2489;DHT22;1255;48.716;9.124;2022-12-07T05:24:32;2.30;99.90
2489;DHT22;1255;48.716;9.124;2022-12-07T05:27:00;2.30;99.90
2489;DHT22;1255;48.716;9.124;2022-12-07T05:29:27;2.30;99.90
2489;DHT22;1255;48.716;9.124;2022-12-07T05:31:54;2.40;99.90
2489;DHT22;1255;48.716;9.124;2022-12-07T05:34:20;2.40;99.90
2489;DHT22;1255;48.716;9.124;2022-12-07T05:36:47;2.40;99.90
2489;DHT22;1255;48.716;9.124;2022-12-07T05:39:14;2.30;99.90
2489;DHT22;1255;48.716;9.124;2022-12-07T05:41:41;2.30;99.90
2489;DHT22;1255;48.716;9.124;2022-12-07T05:44:23;2.30;99.90
2489;DHT22;1255;48.716;9.124;2022-12-07T05:46:50;2.30;99.90
2489;DHT22;1255;48.716;9.124;2022-12-07T05:49:17;2.20;99.90
2489;DHT22;1255;48.716;9.124;2022-12-07T05:51:43;2.10;99.90
2489;DHT22;1255;48.716;9.124;2022-12-07T05:54:10;2.00;99.90
2489;DHT22;1255;48.716;9.124;2022-12-07T05:56:37;1.90;99.90
2489;DHT22;1255;48.716;9.124;2022-12-07T05:59:04;1.90;99.90
2489;DHT22;1255;48.716;9.124;2022-12-07T06:01:51;1.80;99.90
2489;DHT22;1255;48.716;9.124;2022-12-07T06:04:18;1.70;99.90
2489;DHT22;1255;48.716;9.124;2022-12-07T06:06:45;1.60;99.90
2489;DHT22;1255;48.716;9.124;2022-12-07T06:09:13;1.60;99.90
2489;DHT22;1255;48.716;9.124;2022-12-07T06:11:40;1.50;99.90
2489;DHT22;1255;48.716;9.124;2022-12-07T06:14:25;1.50;99.90
2489;DHT22;1255;48.716;9.124;2022-12-07T06:16:53;1.50;99.90
2489;DHT22;1255;48.716;9.124;2022-12-07T06:19:20;1.50;99.90
2489;DHT22;1255;48.716;9.124;2022-12-07T06:21:47;1.50;99.90
2489;DHT22;1255;48.716;9.124;2022-12-07T06:24:14;1.50;99.90
2489;DHT22;1255;48.716;9.124;2022-12-07T06:26:41;1.60;99.90
2489;DHT22;1255;48.716;9.124;2022-12-07T06:29:09;1.60;99.90
2489;DHT22;1255;48.716;9.124;2022-12-07T06:31:36;1.60;99.90
2489;DHT22;1255;48.716;9.124;2022-12-07T06:34:06;1.70;99.90
2489;DHT22;1255;48.716;9.124;2022-12-07T06:36:33;1.70;99.90
2489;DHT22;1255;48.716;9.124;2022-12-07T06:39:00;1.70;99.90
2489;DHT22;1255;48.716;9.124;2022-12-07T06:41:27;1.70;99.90
2489;DHT22;1255;48.716;9.124;2022-12-07T06:43:54;1.70;99.90
2489;DHT22;1255;48.716;9.124;2022-12-07T06:46:21;1.70;99.90
2489;DHT22;1255;48.716;9.124;2022-12-07T06:48:48;1.80;99.90
2489;DHT22;1255;48.716;9.124;2022-12-07T06:51:16;1.70;99.90
2489;DHT22;1255;48.716;9.124;2022-12-07T06:53:43;1.80;99.90
2489;DHT22;1255;48.716;9.124;2022-12-07T06:56:10;1.70;99.90
2489;DHT22;1255;48.716;9.124;2022-12-07T06:58:36;1.70;99.90
2489;DHT22;1255;48.716;9.124;2022-12-07T07:01:09;1.60;99.90
2489;DHT22;1255;48.716;9.124;2022-12-07T07:03:35;1.70;99.90
2489;DHT22;1255;48.716;9.124;2022-12-07T07:06:02;1.60;99.90
2489;DHT22;1255;48.716;9.124;2022-12-07T07:08:31;1.60;99.90
2489;DHT22;1255;48.716;9.124;2022-12-07T07:10:57;1.60;99.90
2489;DHT22;1255;48.716;9.124;2022-12-07T07:13:24;1.50;99.90
2489;DHT22;1255;48.716;9.124;2022-12-07T07:15:51;1.60;99.90
2489;DHT22;1255;48.716;9.124;2022-12-07T07:18:18;1.60;99.90
2489;DHT22;1255;48.716;9.124;2022-12-07T07:20:45;1.50;99.90
2489;DHT22;1255;48.716;9.124;2022-12-07T07:23:11;1.60;99.90
2489;DHT22;1255;48.716;9.124;2022-12-07T07:25:40;1.60;99.90
2489;DHT22;1255;48.716;9.124;2022-12-07T07:28:06;1.60;99.90
2489;DHT22;1255;48.716;9.124;2022-12-07T07:30:33;1.70;99.90
2489;DHT22;1255;48.716;9.124;2022-12-07T07:33:01;1.70;99.90
2489;DHT22;1255;48.716;9.124;2022-12-07T07:35:30;1.80;99.90
2489;DHT22;1255;48.716;9.124;2022-12-07T07:37:57;1.80;99.90
2489;DHT22;1255;48.716;9.124;2022-12-07T07:40:24;1.80;99.90
2489;DHT22;1255;48.716;9.124;2022-12-07T07:42:53;1.80;99.90
2489;DHT22;1255;48.716;9.124;2022-12-07T07:45:22;1.80;99.90
2489;DHT22;1255;48.716;9.124;2022-12-07T07:47:49;1.80;99.90
2489;DHT22;1255;48.716;9.124;2022-12-07T07:50:16;1.80;99.90
2489;DHT22;1255;48.716;9.124;2022-12-07T07:52:44;1.90;99.90
2489;DHT22;1255;48.716;9.124;2022-12-07T07:55:11;1.90;99.90
2489;DHT22;1255;48.716;9.124;2022-12-07T07:57:39;1.90;99.90
2489;DHT22;1255;48.716;9.124;2022-12-07T08:00:10;2.00;99.90
2489;DHT22;1255;48.716;9.124;2022-12-07T08:02:37;2.00;99.90
2489;DHT22;1255;48.716;9.124;2022-12-07T08:05:05;2.00;99.90
2489;DHT22;1255;48.716;9.124;2022-12-07T08:07:32;2.10;99.90
2489;DHT22;1255;48.716;9.124;2022-12-07T08:09:59;2.10;99.90
2489;DHT22;1255;48.716;9.124;2022-12-07T08:12:26;2.10;99.90
2489;DHT22;1255;48.716;9.124;2022-12-07T08:14:52;2.10;99.90
2489;DHT22;1255;48.716;9.124;2022-12-07T08:17:20;2.20;99.90
2489;DHT22;1255;48.716;9.124;2022-12-07T08:19:47;2.20;99.90
2489;DHT22;1255;48.716;9.124;2022-12-07T08:22:14;2.30;99.90
2489;DHT22;1255;48.716;9.124;2022-12-07T08:24:41;2.30;99.90
2489;DHT22;1255;48.716;9.124;2022-12-07T08:27:07;2.40;99.90
2489;DHT22;1255;48.716;9.124;2022-12-07T08:29:34;2.50;99.90
2489;DHT22;1255;48.716;9.124;2022-12-07T08:32:01;2.50;99.90
2489;DHT22;1255;48.716;9.124;2022-12-07T08:34:29;2.50;99.90
2489;DHT22;1255;48.716;9.124;2022-12-07T08:36:56;2.50;99.90
2489;DHT22;1255;48.716;9.124;2022-12-07T08:39:22;2.60;99.90
2489;DHT22;1255;48.716;9.124;2022-12-07T08:41:49;2.70;99.90
2489;DHT22;1255;48.716;9.124;2022-12-07T08:44:16;2.80;99.90
2489;DHT22;1255;48.716;9.124;2022-12-07T08:46:46;2.90;99.90
2489;DHT22;1255;48.716;9.124;2022-12-07T08:49:16;3.00;99.90
2489;DHT22;1255;48.716;9.124;2022-12-07T08:51:44;2.90;99.90
2489;DHT22;1255;48.716;9.124;2022-12-07T08:54:14;3.00;99.90
2489;DHT22;1255;48.716;9.124;2022-12-07T08:56:41;3.00;99.90
2489;DHT22;1255;48.716;9.124;2022-12-07T08:59:09;3.10;99.90
2489;DHT22;1255;48.716;9.124;2022-12-07T09:01:37;3.30;99.90
2489;DHT22;1255;48.716;9.124;2022-12-07T09:04:04;3.40;99.90
2489;DHT22;1255;48.716;9.124;2022-12-07T09:06:30;3.50;99.90
2489;DHT22;1255;48.716;9.124;2022-12-07T09:09:00;3.60;99.90
2489;DHT22;1255;48.716;9.124;2022-12-07T09:11:27;3.70;99.90
2489;DHT22;1255;48.716;9.124;2022-12-07T09:13:54;3.80;99.90
2489;DHT22;1255;48.716;9.124;2022-12-07T09:16:21;3.90;99.90
2489;DHT22;1255;48.716;9.124;2022-12-07T09:18:48;4.10;99.90
2489;DHT22;1255;48.716;9.124;2022-12-07T09:21:15;4.10;99.90
2489;DHT22;1255;48.716;9.124;2022-12-07T09:23:42;4.20;99.90
2489;DHT22;1255;48.716;9.124;2022-12-07T09:26:10;4.30;99.90
2489;DHT22;1255;48.716;9.124;2022-12-07T09:28:37;4.30;99.90
2489;DHT22;1255;48.716;9.124;2022-12-07T09:31:04;4.30;99.90
2489;DHT22;1255;48.716;9.124;2022-12-07T09:33:31;4.30;99.90
2489;DHT22;1255;48.716;9.124;2022-12-07T09:35:58;4.30;99.90
2489;DHT22;1255;48.716;9.124;2022-12-07T09:38:25;4.30;99.90
2489;DHT22;1255;48.716;9.124;2022-12-07T09:40:54;4.30;99.90
2489;DHT22;1255;48.716;9.124;2022-12-07T09:43:25;4.40;99.90
2489;DHT22;1255;48.716;9.124;2022-12-07T09:45:53;4.40;99.90
2489;DHT22;1255;48.716;9.124;2022-12-07T09:48:22;4.40;99.90
2489;DHT22;1255;48.716;9.124;2022-12-07T09:50:52;4.40;99.90
2489;DHT22;1255;48.716;9.124;2022-12-07T09:53:25;4.40;99.90
2489;DHT22;1255;48.716;9.124;2022-12-07T09:55:52;4.60;99.90
2489;DHT22;1255;48.716;9.124;2022-12-07T09:58:23;4.70;99.90
2489;DHT22;1255;48.716;9.124;2022-12-07T10:00:53;4.60;99.90
2489;DHT22;1255;48.716;9.124;2022-12-07T10:03:22;4.70;99.90
2489;DHT22;1255;48.716;9.124;2022-12-07T10:05:50;4.80;99.90
2489;DHT22;1255;48.716;9.124;2022-12-07T10:08:18;4.90;99.90
2489;DHT22;1255;48.716;9.124;2022-12-07T10:10:48;5.00;99.90
2489;DHT22;1255;48.716;9.124;2022-12-07T10:13:20;5.20;99.90
2489;DHT22;1255;48.716;9.124;2022-12-07T10:15:51;5.20;99.90
2489;DHT22;1255;48.716;9.124;2022-12-07T10:18:21;5.30;99.90
2489;DHT22;1255;48.716;9.124;2022-12-07T10:21:01;5.40;99.90
2489;DHT22;1255;48.716;9.124;2022-12-07T10:23:28;5.40;99.90
2489;DHT22;1255;48.716;9.124;2022-12-07T10:25:55;5.50;99.90
2489;DHT22;1255;48.716;9.124;2022-12-07T10:28:22;5.60;99.90
2489;DHT22;1255;48.716;9.124;2022-12-07T10:30:56;5.70;99.90
2489;DHT22;1255;48.716;9.124;2022-12-07T10:33:30;5.90;99.90
2489;DHT22;1255;48.716;9.124;2022-12-07T10:35:57;6.00;99.90
2489;DHT22;1255;48.716;9.124;2022-12-07T10:38:25;5.90;99.90
2489;DHT22;1255;48.716;9.124;2022-12-07T10:41:04;5.80;99.90
2489;DHT22;1255;48.716;9.124;2022-12-07T10:43:31;5.80;99.90
2489;DHT22;1255;48.716;9.124;2022-12-07T10:46:19;5.60;99.90
2489;DHT22;1255;48.716;9.124;2022-12-07T10:48:54;5.40;99.90
2489;DHT22;1255;48.716;9.124;2022-12-07T10:51:32;5.20;99.90
2489;DHT22;1255;48.716;9.124;2022-12-07T10:54:10;5.10;99.90
2489;DHT22;1255;48.716;9.124;2022-12-07T10:56:57;5.00;99.90
2489;DHT22;1255;48.716;9.124;2022-12-07T10:59:49;5.00;99.90
2489;DHT22;1255;48.716;9.124;2022-12-07T11:02:31;5.10;99.90
2489;DHT22;1255;48.716;9.124;2022-12-07T11:05:06;5.10;99.90
2489;DHT22;1255;48.716;9.124;2022-12-07T11:07:43;5.10;99.90
2489;DHT22;1255;48.716;9.124;2022-12-07T11:10:17;5.10;99.90
2489;DHT22;1255;48.716;9.124;2022-12-07T11:13:02;5.10;99.90
2489;DHT22;1255;48.716;9.124;2022-12-07T11:15:41;5.10;99.90
2489;DHT22;1255;48.716;9.124;2022-12-07T11:18:21;5.10;99.90
2489;DHT22;1255;48.716;9.124;2022-12-07T11:20:53;5.10;99.90
2489;DHT22;1255;48.716;9.124;2022-12-07T11:23:31;5.20;99.90
2489;DHT22;1255;48.716;9.124;2022-12-07T11:26:10;5.30;99.90
2489;DHT22;1255;48.716;9.124;2022-12-07T11:29:06;5.20;99.90
2489;DHT22;1255;48.716;9.124;2022-12-07T11:31:46;5.20;99.90
2489;DHT22;1255;48.716;9.124;2022-12-07T11:34:24;5.30;99.90
2489;DHT22;1255;48.716;9.124;2022-12-07T11:36:54;5.30;99.90
2489;DHT22;1255;48.716;9.124;2022-12-07T11:39:28;5.30;99.90
2489;DHT22;1255;48.716;9.124;2022-12-07T11:42:01;5.30;99.90
2489;DHT22;1255;48.716;9.124;2022-12-07T11:44:34;5.30;99.90
2489;DHT22;1255;48.716;9.124;2022-12-07T11:47:07;5.30;99.90
2489;DHT22;1255;48.716;9.124;2022-12-07T11:49:42;5.30;99.90
2489;DHT22;1255;48.716;9.124;2022-12-07T11:52:17;5.30;99.90
2489;DHT22;1255;48.716;9.124;2022-12-07T11:54:45;5.30;99.90
2489;DHT22;1255;48.716;9.124;2022-12-07T11:57:17;5.30;99.90
2489;DHT22;1255;48.716;9.124;2022-12-07T11:59:48;5.30;99.90
2489;DHT22;1255;48.716;9.124;2022-12-07T12:02:20;5.20;99.90
2489;DHT22;1255;48.716;9.124;2022-12-07T12:04:55;5.30;99.90
2489;DHT22;1255;48.716;9.124;2022-12-07T12:07:23;5.30;99.90
2489;DHT22;1255;48.716;9.124;2022-12-07T12:09:54;5.30;99.90
2489;DHT22;1255;48.716;9.124;2022-12-07T12:12:48;5.30;99.90
2489;DHT22;1255;48.716;9.124;2022-12-07T12:15:28;5.20;99.90
2489;DHT22;1255;48.716;9.124;2022-12-07T12:18:12;5.30;99.90
2489;DHT22;1255;48.716;9.124;2022-12-07T12:20:46;5.40;99.90
2489;DHT22;1255;48.716;9.124;2022-12-07T12:23:18;5.40;99.90
2489;DHT22;1255;48.716;9.124;2022-12-07T12:25:48;5.40;99.90
2489;DHT22;1255;48.716;9.124;2022-12-07T12:28:24;5.40;99.90
2489;DHT22;1255;48.716;9.124;2022-12-07T12:33:29;5.30;99.90
2489;DHT22;1255;48.716;9.124;2022-12-07T12:36:53;5.30;99.90
2489;DHT22;1255;48.716;9.124;2022-12-07T12:39:29;5.20;99.90
2489;DHT22;1255;48.716;9.124;2022-12-07T12:42:17;5.20;99.90
2489;DHT22;1255;48.716;9.124;2022-12-07T12:45:26;5.10;99.90
2489;DHT22;1255;48.716;9.124;2022-12-07T12:48:49;5.10;99.90
2489;DHT22;1255;48.716;9.124;2022-12-07T12:52:05;5.10;99.90
2489;DHT22;1255;48.716;9.124;2022-12-07T12:55:42;5.10;99.90
2489;DHT22;1255;48.716;9.124;2022-12-07T13:01:55;5.00;99.90
2489;DHT22;1255;48.716;9.124;2022-12-07T13:08:22;4.90;99.90
2489;DHT22;1255;48.716;9.124;2022-12-07T13:11:44;4.90;99.90
2489;DHT22;1255;48.716;9.124;2022-12-07T13:17:59;5.00;99.90
2489;DHT22;1255;48.716;9.124;2022-12-07T13:20:49;5.00;99.90
2489;DHT22;1255;48.716;9.124;2022-12-07T13:23:23;5.00;99.90
2489;DHT22;1255;48.716;9.124;2022-12-07T13:26:15;4.90;99.90
2489;DHT22;1255;48.716;9.124;2022-12-07T13:28:44;4.90;99.90
2489;DHT22;1255;48.716;9.124;2022-12-07T13:31:26;4.80;99.90
2489;DHT22;1255;48.716;9.124;2022-12-07T13:33:57;4.80;99.90
2489;DHT22;1255;48.716;9.124;2022-12-07T13:36:25;4.80;99.90
2489;DHT22;1255;48.716;9.124;2022-12-07T13:38:56;4.80;99.90
2489;DHT22;1255;48.716;9.124;2022-12-07T13:41:24;4.80;99.90
2489;DHT22;1255;48.716;9.124;2022-12-07T13:43:59;4.90;99.90
2489;DHT22;1255;48.716;9.124;2022-12-07T13:46:40;4.90;99.90
2489;DHT22;1255;48.716;9.124;2022-12-07T13:49:17;5.00;99.90
2489;DHT22;1255;48.716;9.124;2022-12-07T13:51:44;5.00;99.90
2489;DHT22;1255;48.716;9.124;2022-12-07T13:54:13;5.00;99.90
2489;DHT22;1255;48.716;9.124;2022-12-07T13:56:40;4.90;99.90
2489;DHT22;1255;48.716;9.124;2022-12-07T13:59:14;4.90;99.90
2489;DHT22;1255;48.716;9.124;2022-12-07T14:01:42;4.90;99.90
2489;DHT22;1255;48.716;9.124;2022-12-07T14:04:31;5.00;99.90
2489;DHT22;1255;48.716;9.124;2022-12-07T14:07:00;5.00;99.90
2489;DHT22;1255;48.716;9.124;2022-12-07T14:09:29;5.00;99.90
2489;DHT22;1255;48.716;9.124;2022-12-07T14:11:57;5.00;99.90
2489;DHT22;1255;48.716;9.124;2022-12-07T14:14:27;4.90;99.90
2489;DHT22;1255;48.716;9.124;2022-12-07T14:16:57;4.90;99.90
2489;DHT22;1255;48.716;9.124;2022-12-07T14:19:45;4.90;99.90
2489;DHT22;1255;48.716;9.124;2022-12-07T14:22:30;4.80;99.90
2489;DHT22;1255;48.716;9.124;2022-12-07T14:25:26;4.80;99.90
2489;DHT22;1255;48.716;9.124;2022-12-07T14:27:55;4.80;99.90
2489;DHT22;1255;48.716;9.124;2022-12-07T14:30:24;4.80;99.90
2489;DHT22;1255;48.716;9.124;2022-12-07T14:32:54;4.70;99.90
2489;DHT22;1255;48.716;9.124;2022-12-07T14:35:21;4.60;99.90
2489;DHT22;1255;48.716;9.124;2022-12-07T14:37:49;4.60;99.90
2489;DHT22;1255;48.716;9.124;2022-12-07T14:40:18;4.60;99.90
2489;DHT22;1255;48.716;9.124;2022-12-07T14:42:48;4.50;99.90
2489;DHT22;1255;48.716;9.124;2022-12-07T14:45:19;4.50;99.90
2489;DHT22;1255;48.716;9.124;2022-12-07T14:47:46;4.50;99.90
2489;DHT22;1255;48.716;9.124;2022-12-07T14:50:14;4.50;99.90
2489;DHT22;1255;48.716;9.124;2022-12-07T14:52:42;4.40;99.90
2489;DHT22;1255;48.716;9.124;2022-12-07T14:55:14;4.40;99.90
2489;DHT22;1255;48.716;9.124;2022-12-07T14:57:41;4.40;99.90
2489;DHT22;1255;48.716;9.124;2022-12-07T15:00:14;4.30;99.90
2489;DHT22;1255;48.716;9.124;2022-12-07T15:02:41;4.30;99.90
2489;DHT22;1255;48.716;9.124;2022-12-07T15:05:08;4.30;99.90
2489;DHT22;1255;48.716;9.124;2022-12-07T15:07:34;4.30;99.90
2489;DHT22;1255;48.716;9.124;2022-12-07T15:10:01;4.30;99.90
2489;DHT22;1255;48.716;9.124;2022-12-07T15:12:28;4.30;99.90
2489;DHT22;1255;48.716;9.124;2022-12-07T15:14:55;4.30;99.90
2489;DHT22;1255;48.716;9.124;2022-12-07T15:17:23;4.30;99.90
2489;DHT22;1255;48.716;9.124;2022-12-07T15:19:50;4.30;99.90
2489;DHT22;1255;48.716;9.124;2022-12-07T15:22:16;4.30;99.90
2489;DHT22;1255;48.716;9.124;2022-12-07T15:24:43;4.30;99.90
2489;DHT22;1255;48.716;9.124;2022-12-07T15:27:10;4.20;99.90
2489;DHT22;1255;48.716;9.124;2022-12-07T15:29:36;4.20;99.90
2489;DHT22;1255;48.716;9.124;2022-12-07T15:32:03;4.20;99.90
2489;DHT22;1255;48.716;9.124;2022-12-07T15:34:32;4.20;99.90
2489;DHT22;1255;48.716;9.124;2022-12-07T15:36:59;4.10;99.90
2489;DHT22;1255;48.716;9.124;2022-12-07T15:41:54;4.00;99.90
2489;DHT22;1255;48.716;9.124;2022-12-07T15:44:20;4.00;99.90
2489;DHT22;1255;48.716;9.124;2022-12-07T15:47:05;4.00;99.90
2489;DHT22;1255;48.716;9.124;2022-12-07T15:49:33;3.90;99.90
2489;DHT22;1255;48.716;9.124;2022-12-07T15:52:00;3.90;99.90
2489;DHT22;1255;48.716;9.124;2022-12-07T15:54:28;3.90;99.90
2489;DHT22;1255;48.716;9.124;2022-12-07T15:56:55;3.90;99.90
2489;DHT22;1255;48.716;9.124;2022-12-07T15:59:22;3.80;99.90
2489;DHT22;1255;48.716;9.124;2022-12-07T16:01:49;3.90;99.90
2489;DHT22;1255;48.716;9.124;2022-12-07T16:04:16;3.80;99.90
2489;DHT22;1255;48.716;9.124;2022-12-07T16:06:45;3.70;99.90
2489;DHT22;1255;48.716;9.124;2022-12-07T16:09:12;3.70;99.90
2489;DHT22;1255;48.716;9.124;2022-12-07T16:11:39;3.70;99.90
2489;DHT22;1255;48.716;9.124;2022-12-07T16:14:05;3.70;99.90
2489;DHT22;1255;48.716;9.124;2022-12-07T16:16:32;3.60;99.90
2489;DHT22;1255;48.716;9.124;2022-12-07T16:18:59;3.60;99.90
2489;DHT22;1255;48.716;9.124;2022-12-07T16:21:26;3.50;99.90
2489;DHT22;1255;48.716;9.124;2022-12-07T16:23:54;3.50;99.90
2489;DHT22;1255;48.716;9.124;2022-12-07T16:26:23;3.60;99.90
2489;DHT22;1255;48.716;9.124;2022-12-07T16:28:51;3.60;99.90
2489;DHT22;1255;48.716;9.124;2022-12-07T16:31:19;3.60;99.90
2489;DHT22;1255;48.716;9.124;2022-12-07T16:33:47;3.50;99.90
2489;DHT22;1255;48.716;9.124;2022-12-07T16:36:15;3.50;99.90
2489;DHT22;1255;48.716;9.124;2022-12-07T16:38:42;3.50;99.90
2489;DHT22;1255;48.716;9.124;2022-12-07T16:41:11;3.40;99.90
2489;DHT22;1255;48.716;9.124;2022-12-07T16:43:38;3.40;99.90
2489;DHT22;1255;48.716;9.124;2022-12-07T16:46:05;3.40;99.90
2489;DHT22;1255;48.716;9.124;2022-12-07T16:48:35;3.30;99.90
2489;DHT22;1255;48.716;9.124;2022-12-07T16:51:04;3.30;99.90
2489;DHT22;1255;48.716;9.124;2022-12-07T16:53:31;3.20;99.90
2489;DHT22;1255;48.716;9.124;2022-12-07T16:55:57;3.20;99.90
2489;DHT22;1255;48.716;9.124;2022-12-07T16:58:25;3.10;99.90